sensor_id;sensor_type;location;lat;lon;timestamp;P1;durP1;ratioP1;P2;durP2;ratioP2
23171;SDS011;11754;42.664;23.594;2023-04-20T00:01:50;26.85;;;22.25;;
23171;SDS011;11754;42.664;23.594;2023-04-20T00:04:16;27.85;;;22.65;;
23171;SDS011;11754;42.664;23.594;2023-04-20T00:06:42;27.35;;;20.95;;
23171;SDS011;11754;42.664;23.594;2023-04-20T00:09:09;30.45;;;24.20;;
23171;SDS011;11754;42.664;23.594;2023-04-20T00:11:36;37.80;;;27.90;;
23171;SDS011;11754;42.664;23.594;2023-04-20T00:14:01;37.28;;;29.10;;
23171;SDS011;11754;42.664;23.594;2023-04-20T00:16:27;33.20;;;26.90;;
23171;SDS011;11754;42.664;23.594;2023-04-20T00:18:52;28.55;;;23.75;;
23171;SDS011;11754;42.664;23.594;2023-04-20T00:21:18;26.10;;;20.73;;
23171;SDS011;11754;42.664;23.594;2023-04-20T00:23:48;22.35;;;18.98;;
23171;SDS011;11754;42.664;23.594;2023-04-20T00:26:14;20.50;;;16.60;;
23171;SDS011;11754;42.664;23.594;2023-04-20T00:28:40;18.75;;;15.68;;
23171;SDS011;11754;42.664;23.594;2023-04-20T00:31:06;18.05;;;14.00;;
23171;SDS011;11754;42.664;23.594;2023-04-20T00:33:31;16.73;;;14.27;;
23171;SDS011;11754;42.664;23.594;2023-04-20T00:35:57;16.40;;;14.65;;
23171;SDS011;11754;42.664;23.594;2023-04-20T00:38:22;20.67;;;15.30;;
23171;SDS011;11754;42.664;23.594;2023-04-20T00:40:48;17.20;;;15.35;;
23171;SDS011;11754;42.664;23.594;2023-04-20T00:43:17;18.63;;;15.55;;
23171;SDS011;11754;42.664;23.594;2023-04-20T00:45:44;18.70;;;15.60;;
23171;SDS011;11754;42.664;23.594;2023-04-20T00:48:10;18.50;;;15.43;;
23171;SDS011;11754;42.664;23.594;2023-04-20T00:50:36;19.20;;;16.05;;
23171;SDS011;11754;42.664;23.594;2023-04-20T00:53:02;17.50;;;14.85;;
23171;SDS011;11754;42.664;23.594;2023-04-20T00:55:28;22.23;;;17.02;;
23171;SDS011;11754;42.664;23.594;2023-04-20T00:57:54;17.67;;;15.73;;
23171;SDS011;11754;42.664;23.594;2023-04-20T01:00:20;17.77;;;15.82;;
23171;SDS011;11754;42.664;23.594;2023-04-20T01:02:46;19.75;;;16.35;;
23171;SDS011;11754;42.664;23.594;2023-04-20T01:05:12;17.83;;;15.77;;
23171;SDS011;11754;42.664;23.594;2023-04-20T01:07:38;20.80;;;16.40;;
23171;SDS011;11754;42.664;23.594;2023-04-20T01:10:04;17.63;;;15.75;;
23171;SDS011;11754;42.664;23.594;2023-04-20T01:12:31;19.33;;;15.43;;
23171;SDS011;11754;42.664;23.594;2023-04-20T01:14:56;17.60;;;14.77;;
23171;SDS011;11754;42.664;23.594;2023-04-20T01:17:21;17.05;;;15.13;;
23171;SDS011;11754;42.664;23.594;2023-04-20T01:19:48;18.45;;;14.73;;
23171;SDS011;11754;42.664;23.594;2023-04-20T01:22:20;16.58;;;14.52;;
23171;SDS011;11754;42.664;23.594;2023-04-20T01:24:46;17.38;;;14.60;;
23171;SDS011;11754;42.664;23.594;2023-04-20T01:27:14;17.00;;;14.35;;
23171;SDS011;11754;42.664;23.594;2023-04-20T01:29:41;18.25;;;14.52;;
23171;SDS011;11754;42.664;23.594;2023-04-20T01:32:07;18.60;;;13.85;;
23171;SDS011;11754;42.664;23.594;2023-04-20T01:34:33;16.45;;;13.63;;
23171;SDS011;11754;42.664;23.594;2023-04-20T01:36:59;18.27;;;13.98;;
23171;SDS011;11754;42.664;23.594;2023-04-20T01:39:26;17.85;;;13.90;;
23171;SDS011;11754;42.664;23.594;2023-04-20T01:41:51;17.23;;;14.23;;
23171;SDS011;11754;42.664;23.594;2023-04-20T01:44:17;21.73;;;14.95;;
23171;SDS011;11754;42.664;23.594;2023-04-20T01:46:42;19.60;;;15.32;;
23171;SDS011;11754;42.664;23.594;2023-04-20T01:49:08;22.65;;;14.68;;
23171;SDS011;11754;42.664;23.594;2023-04-20T01:51:34;21.85;;;16.45;;
23171;SDS011;11754;42.664;23.594;2023-04-20T01:53:59;20.52;;;16.50;;
23171;SDS011;11754;42.664;23.594;2023-04-20T01:56:25;21.27;;;16.65;;
23171;SDS011;11754;42.664;23.594;2023-04-20T01:58:51;20.48;;;16.63;;
23171;SDS011;11754;42.664;23.594;2023-04-20T02:01:16;21.75;;;15.63;;
23171;SDS011;11754;42.664;23.594;2023-04-20T02:03:42;19.27;;;16.08;;
23171;SDS011;11754;42.664;23.594;2023-04-20T02:06:07;20.15;;;16.15;;
23171;SDS011;11754;42.664;23.594;2023-04-20T02:08:33;20.95;;;15.77;;
23171;SDS011;11754;42.664;23.594;2023-04-20T02:10:59;18.90;;;15.95;;
23171;SDS011;11754;42.664;23.594;2023-04-20T02:13:24;18.45;;;15.60;;
23171;SDS011;11754;42.664;23.594;2023-04-20T02:15:50;21.27;;;15.52;;
23171;SDS011;11754;42.664;23.594;2023-04-20T02:18:15;24.05;;;15.13;;
23171;SDS011;11754;42.664;23.594;2023-04-20T02:20:44;20.33;;;14.25;;
23171;SDS011;11754;42.664;23.594;2023-04-20T02:23:11;17.70;;;13.32;;
23171;SDS011;11754;42.664;23.594;2023-04-20T02:25:37;17.52;;;14.10;;
23171;SDS011;11754;42.664;23.594;2023-04-20T02:28:03;17.77;;;13.77;;
23171;SDS011;11754;42.664;23.594;2023-04-20T02:30:29;16.17;;;13.85;;
23171;SDS011;11754;42.664;23.594;2023-04-20T02:32:55;16.23;;;13.10;;
23171;SDS011;11754;42.664;23.594;2023-04-20T02:35:20;22.02;;;13.57;;
23171;SDS011;11754;42.664;23.594;2023-04-20T02:37:46;17.52;;;13.43;;
23171;SDS011;11754;42.664;23.594;2023-04-20T02:40:12;15.45;;;12.35;;
23171;SDS011;11754;42.664;23.594;2023-04-20T02:42:37;16.85;;;13.43;;
23171;SDS011;11754;42.664;23.594;2023-04-20T02:45:03;16.70;;;12.88;;
23171;SDS011;11754;42.664;23.594;2023-04-20T02:47:29;16.63;;;12.55;;
23171;SDS011;11754;42.664;23.594;2023-04-20T02:49:55;15.38;;;12.98;;
23171;SDS011;11754;42.664;23.594;2023-04-20T02:52:20;16.65;;;13.20;;
23171;SDS011;11754;42.664;23.594;2023-04-20T02:54:46;18.25;;;13.73;;
23171;SDS011;11754;42.664;23.594;2023-04-20T02:57:11;17.13;;;13.27;;
23171;SDS011;11754;42.664;23.594;2023-04-20T02:59:37;19.33;;;13.82;;
23171;SDS011;11754;42.664;23.594;2023-04-20T03:02:02;19.05;;;13.15;;
23171;SDS011;11754;42.664;23.594;2023-04-20T03:04:28;18.02;;;13.45;;
23171;SDS011;11754;42.664;23.594;2023-04-20T03:06:57;16.40;;;12.73;;
23171;SDS011;11754;42.664;23.594;2023-04-20T03:09:24;16.75;;;12.05;;
23171;SDS011;11754;42.664;23.594;2023-04-20T03:11:50;17.60;;;12.80;;
23171;SDS011;11754;42.664;23.594;2023-04-20T03:14:15;18.10;;;12.70;;
23171;SDS011;11754;42.664;23.594;2023-04-20T03:16:41;15.57;;;12.70;;
23171;SDS011;11754;42.664;23.594;2023-04-20T03:19:06;16.48;;;12.23;;
23171;SDS011;11754;42.664;23.594;2023-04-20T03:21:32;19.65;;;12.90;;
23171;SDS011;11754;42.664;23.594;2023-04-20T03:23:58;16.42;;;12.18;;
23171;SDS011;11754;42.664;23.594;2023-04-20T03:26:25;17.73;;;12.60;;
23171;SDS011;11754;42.664;23.594;2023-04-20T03:28:51;16.00;;;11.80;;
23171;SDS011;11754;42.664;23.594;2023-04-20T03:31:17;15.35;;;12.45;;
23171;SDS011;11754;42.664;23.594;2023-04-20T03:33:43;18.77;;;12.05;;
23171;SDS011;11754;42.664;23.594;2023-04-20T03:36:08;18.33;;;12.32;;
23171;SDS011;11754;42.664;23.594;2023-04-20T03:38:35;14.73;;;12.05;;
23171;SDS011;11754;42.664;23.594;2023-04-20T03:41:03;15.50;;;13.00;;
23171;SDS011;11754;42.664;23.594;2023-04-20T03:43:29;18.15;;;12.30;;
23171;SDS011;11754;42.664;23.594;2023-04-20T03:45:55;15.80;;;11.82;;
23171;SDS011;11754;42.664;23.594;2023-04-20T03:48:20;16.45;;;11.88;;
23171;SDS011;11754;42.664;23.594;2023-04-20T03:50:45;17.25;;;12.07;;
23171;SDS011;11754;42.664;23.594;2023-04-20T03:53:11;16.65;;;11.48;;
23171;SDS011;11754;42.664;23.594;2023-04-20T03:55:36;15.55;;;11.32;;
23171;SDS011;11754;42.664;23.594;2023-04-20T03:58:02;18.23;;;12.25;;
23171;SDS011;11754;42.664;23.594;2023-04-20T04:00:28;15.25;;;11.68;;
23171;SDS011;11754;42.664;23.594;2023-04-20T04:02:54;15.52;;;10.95;;
23171;SDS011;11754;42.664;23.594;2023-04-20T04:05:19;14.95;;;11.60;;
23171;SDS011;11754;42.664;23.594;2023-04-20T04:07:45;17.08;;;11.05;;
23171;SDS011;11754;42.664;23.594;2023-04-20T04:10:10;16.60;;;11.45;;
23171;SDS011;11754;42.664;23.594;2023-04-20T04:12:35;13.52;;;10.60;;
23171;SDS011;11754;42.664;23.594;2023-04-20T04:15:01;15.93;;;11.30;;
23171;SDS011;11754;42.664;23.594;2023-04-20T04:17:26;18.02;;;11.15;;
23171;SDS011;11754;42.664;23.594;2023-04-20T04:19:52;23.08;;;11.70;;
23171;SDS011;11754;42.664;23.594;2023-04-20T04:22:20;15.30;;;11.40;;
23171;SDS011;11754;42.664;23.594;2023-04-20T04:24:46;16.40;;;12.18;;
23171;SDS011;11754;42.664;23.594;2023-04-20T04:27:12;19.83;;;11.75;;
23171;SDS011;11754;42.664;23.594;2023-04-20T04:29:39;18.55;;;12.60;;
23171;SDS011;11754;42.664;23.594;2023-04-20T04:32:06;33.83;;;20.70;;
23171;SDS011;11754;42.664;23.594;2023-04-20T04:34:32;34.70;;;24.58;;
23171;SDS011;11754;42.664;23.594;2023-04-20T04:36:58;28.98;;;21.00;;
23171;SDS011;11754;42.664;23.594;2023-04-20T04:39:25;25.40;;;17.42;;
23171;SDS011;11754;42.664;23.594;2023-04-20T04:41:54;27.80;;;18.42;;
23171;SDS011;11754;42.664;23.594;2023-04-20T04:44:19;20.58;;;15.18;;
23171;SDS011;11754;42.664;23.594;2023-04-20T04:46:46;26.50;;;16.17;;
23171;SDS011;11754;42.664;23.594;2023-04-20T04:49:12;19.60;;;14.73;;
23171;SDS011;11754;42.664;23.594;2023-04-20T04:51:38;24.02;;;15.57;;
23171;SDS011;11754;42.664;23.594;2023-04-20T04:54:03;20.38;;;13.90;;
23171;SDS011;11754;42.664;23.594;2023-04-20T04:56:29;19.20;;;13.30;;
23171;SDS011;11754;42.664;23.594;2023-04-20T04:58:54;23.17;;;12.48;;
23171;SDS011;11754;42.664;23.594;2023-04-20T05:01:20;17.30;;;12.15;;
23171;SDS011;11754;42.664;23.594;2023-04-20T05:03:45;18.92;;;12.70;;
23171;SDS011;11754;42.664;23.594;2023-04-20T05:06:11;17.95;;;12.88;;
23171;SDS011;11754;42.664;23.594;2023-04-20T05:08:36;14.65;;;11.38;;
23171;SDS011;11754;42.664;23.594;2023-04-20T05:11:02;18.63;;;12.02;;
23171;SDS011;11754;42.664;23.594;2023-04-20T05:13:27;13.93;;;12.23;;
23171;SDS011;11754;42.664;23.594;2023-04-20T05:15:53;15.82;;;12.30;;
23171;SDS011;11754;42.664;23.594;2023-04-20T05:18:18;16.40;;;12.38;;
23171;SDS011;11754;42.664;23.594;2023-04-20T05:20:43;16.67;;;12.50;;
23171;SDS011;11754;42.664;23.594;2023-04-20T05:23:09;25.92;;;12.70;;
23171;SDS011;11754;42.664;23.594;2023-04-20T05:25:34;15.32;;;12.05;;
23171;SDS011;11754;42.664;23.594;2023-04-20T05:28:00;18.63;;;12.38;;
23171;SDS011;11754;42.664;23.594;2023-04-20T05:30:25;17.60;;;12.93;;
23171;SDS011;11754;42.664;23.594;2023-04-20T05:32:51;17.88;;;13.68;;
23171;SDS011;11754;42.664;23.594;2023-04-20T05:35:16;18.20;;;13.70;;
23171;SDS011;11754;42.664;23.594;2023-04-20T05:37:41;20.67;;;13.50;;
23171;SDS011;11754;42.664;23.594;2023-04-20T05:40:07;18.88;;;13.90;;
23171;SDS011;11754;42.664;23.594;2023-04-20T05:42:33;20.33;;;14.02;;
23171;SDS011;11754;42.664;23.594;2023-04-20T05:44:59;17.35;;;13.48;;
23171;SDS011;11754;42.664;23.594;2023-04-20T05:47:24;17.10;;;12.05;;
23171;SDS011;11754;42.664;23.594;2023-04-20T05:49:51;18.95;;;12.63;;
23171;SDS011;11754;42.664;23.594;2023-04-20T05:52:17;15.40;;;11.55;;
23171;SDS011;11754;42.664;23.594;2023-04-20T05:54:43;19.15;;;12.60;;
23171;SDS011;11754;42.664;23.594;2023-04-20T05:57:08;15.25;;;11.40;;
23171;SDS011;11754;42.664;23.594;2023-04-20T05:59:33;17.38;;;11.32;;
23171;SDS011;11754;42.664;23.594;2023-04-20T06:01:59;21.65;;;12.27;;
23171;SDS011;11754;42.664;23.594;2023-04-20T06:04:25;30.75;;;12.70;;
23171;SDS011;11754;42.664;23.594;2023-04-20T06:06:51;20.27;;;11.65;;
23171;SDS011;11754;42.664;23.594;2023-04-20T06:09:16;20.33;;;11.73;;
23171;SDS011;11754;42.664;23.594;2023-04-20T06:11:41;17.80;;;11.10;;
23171;SDS011;11754;42.664;23.594;2023-04-20T06:14:07;20.05;;;11.02;;
23171;SDS011;11754;42.664;23.594;2023-04-20T06:16:35;17.73;;;11.82;;
23171;SDS011;11754;42.664;23.594;2023-04-20T06:19:01;20.30;;;12.80;;
23171;SDS011;11754;42.664;23.594;2023-04-20T06:21:26;81.25;;;42.58;;
23171;SDS011;11754;42.664;23.594;2023-04-20T06:23:52;188.68;;;85.80;;
23171;SDS011;11754;42.664;23.594;2023-04-20T06:26:17;254.48;;;126.50;;
23171;SDS011;11754;42.664;23.594;2023-04-20T06:28:43;248.32;;;132.65;;
23171;SDS011;11754;42.664;23.594;2023-04-20T06:31:09;165.20;;;97.32;;
23171;SDS011;11754;42.664;23.594;2023-04-20T06:33:35;147.98;;;95.53;;
23171;SDS011;11754;42.664;23.594;2023-04-20T06:36:01;161.13;;;128.23;;
23171;SDS011;11754;42.664;23.594;2023-04-20T06:38:26;108.07;;;72.53;;
23171;SDS011;11754;42.664;23.594;2023-04-20T06:40:51;99.72;;;65.53;;
23171;SDS011;11754;42.664;23.594;2023-04-20T06:43:17;111.18;;;67.70;;
23171;SDS011;11754;42.664;23.594;2023-04-20T06:45:42;151.75;;;93.75;;
23171;SDS011;11754;42.664;23.594;2023-04-20T06:48:08;93.85;;;63.00;;
23171;SDS011;11754;42.664;23.594;2023-04-20T06:50:33;112.95;;;86.40;;
23171;SDS011;11754;42.664;23.594;2023-04-20T06:52:59;40.00;;;29.55;;
23171;SDS011;11754;42.664;23.594;2023-04-20T06:55:26;22.50;;;14.10;;
23171;SDS011;11754;42.664;23.594;2023-04-20T06:57:51;17.05;;;13.32;;
23171;SDS011;11754;42.664;23.594;2023-04-20T07:00:17;21.33;;;18.98;;
23171;SDS011;11754;42.664;23.594;2023-04-20T07:02:43;17.42;;;13.18;;
23171;SDS011;11754;42.664;23.594;2023-04-20T07:05:10;19.17;;;12.45;;
23171;SDS011;11754;42.664;23.594;2023-04-20T07:07:36;18.95;;;11.77;;
23171;SDS011;11754;42.664;23.594;2023-04-20T07:10:02;19.10;;;12.60;;
23171;SDS011;11754;42.664;23.594;2023-04-20T07:12:27;33.90;;;20.58;;
23171;SDS011;11754;42.664;23.594;2023-04-20T07:14:53;46.00;;;31.88;;
23171;SDS011;11754;42.664;23.594;2023-04-20T07:17:19;40.67;;;31.73;;
23171;SDS011;11754;42.664;23.594;2023-04-20T07:19:45;30.20;;;21.98;;
23171;SDS011;11754;42.664;23.594;2023-04-20T07:22:10;21.95;;;16.17;;
23171;SDS011;11754;42.664;23.594;2023-04-20T07:24:35;40.83;;;28.33;;
23171;SDS011;11754;42.664;23.594;2023-04-20T07:27:01;38.75;;;29.30;;
23171;SDS011;11754;42.664;23.594;2023-04-20T07:29:27;28.58;;;23.27;;
23171;SDS011;11754;42.664;23.594;2023-04-20T07:31:52;48.95;;;30.42;;
23171;SDS011;11754;42.664;23.594;2023-04-20T07:34:18;51.08;;;33.90;;
23171;SDS011;11754;42.664;23.594;2023-04-20T07:36:43;15.30;;;11.68;;
23171;SDS011;11754;42.664;23.594;2023-04-20T07:39:09;19.27;;;11.23;;
23171;SDS011;11754;42.664;23.594;2023-04-20T07:41:34;29.23;;;18.83;;
23171;SDS011;11754;42.664;23.594;2023-04-20T07:44:03;18.38;;;11.65;;
23171;SDS011;11754;42.664;23.594;2023-04-20T07:46:28;15.77;;;10.68;;
23171;SDS011;11754;42.664;23.594;2023-04-20T07:48:54;24.45;;;18.23;;
23171;SDS011;11754;42.664;23.594;2023-04-20T07:51:20;15.15;;;11.30;;
23171;SDS011;11754;42.664;23.594;2023-04-20T07:53:45;18.58;;;11.35;;
23171;SDS011;11754;42.664;23.594;2023-04-20T07:56:11;19.00;;;12.15;;
23171;SDS011;11754;42.664;23.594;2023-04-20T07:58:36;22.92;;;14.90;;
23171;SDS011;11754;42.664;23.594;2023-04-20T08:01:04;19.83;;;15.63;;
23171;SDS011;11754;42.664;23.594;2023-04-20T08:03:30;23.80;;;13.40;;
23171;SDS011;11754;42.664;23.594;2023-04-20T08:05:55;19.23;;;12.52;;
23171;SDS011;11754;42.664;23.594;2023-04-20T08:08:20;16.52;;;11.00;;
23171;SDS011;11754;42.664;23.594;2023-04-20T08:10:46;14.90;;;12.25;;
23171;SDS011;11754;42.664;23.594;2023-04-20T08:13:11;17.17;;;11.52;;
23171;SDS011;11754;42.664;23.594;2023-04-20T08:15:37;15.25;;;11.65;;
23171;SDS011;11754;42.664;23.594;2023-04-20T08:18:02;21.88;;;11.65;;
23171;SDS011;11754;42.664;23.594;2023-04-20T08:20:28;14.90;;;10.65;;
23171;SDS011;11754;42.664;23.594;2023-04-20T08:22:53;13.93;;;9.93;;
23171;SDS011;11754;42.664;23.594;2023-04-20T08:25:18;17.25;;;10.63;;
23171;SDS011;11754;42.664;23.594;2023-04-20T08:27:44;16.90;;;11.63;;
23171;SDS011;11754;42.664;23.594;2023-04-20T08:30:10;17.67;;;11.20;;
23171;SDS011;11754;42.664;23.594;2023-04-20T08:32:36;14.68;;;11.13;;
23171;SDS011;11754;42.664;23.594;2023-04-20T08:35:01;17.77;;;12.82;;
23171;SDS011;11754;42.664;23.594;2023-04-20T08:37:28;15.10;;;11.52;;
23171;SDS011;11754;42.664;23.594;2023-04-20T08:39:53;21.88;;;15.05;;
23171;SDS011;11754;42.664;23.594;2023-04-20T08:42:19;15.02;;;12.43;;
23171;SDS011;11754;42.664;23.594;2023-04-20T08:44:45;20.05;;;13.00;;
23171;SDS011;11754;42.664;23.594;2023-04-20T08:47:10;16.80;;;11.70;;
23171;SDS011;11754;42.664;23.594;2023-04-20T08:49:36;17.35;;;11.60;;
23171;SDS011;11754;42.664;23.594;2023-04-20T08:52:06;20.25;;;14.60;;
23171;SDS011;11754;42.664;23.594;2023-04-20T08:54:35;65.38;;;47.03;;
23171;SDS011;11754;42.664;23.594;2023-04-20T08:57:02;28.05;;;17.95;;
23171;SDS011;11754;42.664;23.594;2023-04-20T08:59:28;26.20;;;17.90;;
23171;SDS011;11754;42.664;23.594;2023-04-20T09:01:55;31.88;;;18.92;;
23171;SDS011;11754;42.664;23.594;2023-04-20T09:04:21;38.80;;;21.27;;
23171;SDS011;11754;42.664;23.594;2023-04-20T09:06:51;36.20;;;20.00;;
23171;SDS011;11754;42.664;23.594;2023-04-20T09:09:19;23.77;;;17.27;;
23171;SDS011;11754;42.664;23.594;2023-04-20T09:11:46;27.60;;;18.35;;
23171;SDS011;11754;42.664;23.594;2023-04-20T09:14:13;14.63;;;10.57;;
23171;SDS011;11754;42.664;23.594;2023-04-20T09:16:52;12.45;;;10.38;;
23171;SDS011;11754;42.664;23.594;2023-04-20T09:19:26;16.00;;;10.60;;
23171;SDS011;11754;42.664;23.594;2023-04-20T09:21:53;11.80;;;9.50;;
23171;SDS011;11754;42.664;23.594;2023-04-20T09:24:21;10.98;;;8.85;;
23171;SDS011;11754;42.664;23.594;2023-04-20T09:26:47;11.25;;;9.15;;
23171;SDS011;11754;42.664;23.594;2023-04-20T09:29:16;14.32;;;10.23;;
23171;SDS011;11754;42.664;23.594;2023-04-20T09:31:46;22.48;;;16.83;;
23171;SDS011;11754;42.664;23.594;2023-04-20T09:34:12;15.30;;;10.32;;
23171;SDS011;11754;42.664;23.594;2023-04-20T09:36:42;15.70;;;10.80;;
23171;SDS011;11754;42.664;23.594;2023-04-20T09:39:11;13.73;;;10.40;;
23171;SDS011;11754;42.664;23.594;2023-04-20T09:41:37;16.67;;;9.93;;
23171;SDS011;11754;42.664;23.594;2023-04-20T09:44:03;13.88;;;9.07;;
23171;SDS011;11754;42.664;23.594;2023-04-20T09:46:30;17.63;;;10.57;;
23171;SDS011;11754;42.664;23.594;2023-04-20T09:49:03;14.27;;;9.95;;
23171;SDS011;11754;42.664;23.594;2023-04-20T09:51:31;16.58;;;11.10;;
23171;SDS011;11754;42.664;23.594;2023-04-20T09:54:01;15.55;;;10.68;;
23171;SDS011;11754;42.664;23.594;2023-04-20T09:56:29;13.02;;;10.32;;
23171;SDS011;11754;42.664;23.594;2023-04-20T09:58:55;10.80;;;8.82;;
23171;SDS011;11754;42.664;23.594;2023-04-20T10:01:22;12.18;;;9.52;;
23171;SDS011;11754;42.664;23.594;2023-04-20T10:03:48;12.73;;;8.50;;
23171;SDS011;11754;42.664;23.594;2023-04-20T10:06:21;13.63;;;8.35;;
23171;SDS011;11754;42.664;23.594;2023-04-20T10:08:48;10.30;;;5.97;;
23171;SDS011;11754;42.664;23.594;2023-04-20T10:14:01;9.38;;;6.80;;
23171;SDS011;11754;42.664;23.594;2023-04-20T10:16:40;9.45;;;5.90;;
23171;SDS011;11754;42.664;23.594;2023-04-20T10:19:07;11.77;;;5.97;;
23171;SDS011;11754;42.664;23.594;2023-04-20T10:21:32;8.23;;;5.40;;
23171;SDS011;11754;42.664;23.594;2023-04-20T10:24:12;7.45;;;5.30;;
23171;SDS011;11754;42.664;23.594;2023-04-20T10:26:39;6.90;;;4.60;;
23171;SDS011;11754;42.664;23.594;2023-04-20T10:29:07;10.77;;;4.88;;
23171;SDS011;11754;42.664;23.594;2023-04-20T10:31:36;7.43;;;6.10;;
23171;SDS011;11754;42.664;23.594;2023-04-20T10:34:02;9.95;;;4.80;;
23171;SDS011;11754;42.664;23.594;2023-04-20T10:36:33;4.90;;;4.10;;
23171;SDS011;11754;42.664;23.594;2023-04-20T10:39:22;4.88;;;4.30;;
23171;SDS011;11754;42.664;23.594;2023-04-20T10:41:56;5.07;;;4.15;;
23171;SDS011;11754;42.664;23.594;2023-04-20T10:44:27;16.52;;;5.55;;
23171;SDS011;11754;42.664;23.594;2023-04-20T10:46:53;6.45;;;4.85;;
23171;SDS011;11754;42.664;23.594;2023-04-20T10:49:24;5.85;;;4.38;;
23171;SDS011;11754;42.664;23.594;2023-04-20T10:51:51;7.70;;;4.45;;
23171;SDS011;11754;42.664;23.594;2023-04-20T10:54:17;7.30;;;4.50;;
23171;SDS011;11754;42.664;23.594;2023-04-20T10:56:44;6.00;;;3.97;;
23171;SDS011;11754;42.664;23.594;2023-04-20T10:59:14;6.82;;;3.65;;
23171;SDS011;11754;42.664;23.594;2023-04-20T11:01:41;10.25;;;4.30;;
23171;SDS011;11754;42.664;23.594;2023-04-20T11:04:08;17.13;;;15.35;;
23171;SDS011;11754;42.664;23.594;2023-04-20T11:06:41;40.92;;;36.50;;
23171;SDS011;11754;42.664;23.594;2023-04-20T11:12:04;9.07;;;4.90;;
23171;SDS011;11754;42.664;23.594;2023-04-20T11:14:34;8.52;;;5.30;;
23171;SDS011;11754;42.664;23.594;2023-04-20T11:17:02;8.52;;;6.07;;
23171;SDS011;11754;42.664;23.594;2023-04-20T11:19:29;6.65;;;5.57;;
23171;SDS011;11754;42.664;23.594;2023-04-20T11:21:59;9.85;;;5.82;;
23171;SDS011;11754;42.664;23.594;2023-04-20T11:24:29;9.73;;;6.88;;
23171;SDS011;11754;42.664;23.594;2023-04-20T11:26:56;12.68;;;7.00;;
23171;SDS011;11754;42.664;23.594;2023-04-20T11:29:35;12.77;;;7.50;;
23171;SDS011;11754;42.664;23.594;2023-04-20T11:32:03;10.50;;;7.25;;
23171;SDS011;11754;42.664;23.594;2023-04-20T11:34:31;11.95;;;6.13;;
23171;SDS011;11754;42.664;23.594;2023-04-20T11:37:02;7.13;;;5.70;;
23171;SDS011;11754;42.664;23.594;2023-04-20T11:39:31;8.07;;;4.85;;
23171;SDS011;11754;42.664;23.594;2023-04-20T11:41:57;6.05;;;4.18;;
23171;SDS011;11754;42.664;23.594;2023-04-20T11:44:23;5.25;;;4.15;;
23171;SDS011;11754;42.664;23.594;2023-04-20T11:46:50;6.90;;;5.05;;
23171;SDS011;11754;42.664;23.594;2023-04-20T11:49:18;8.68;;;5.10;;
23171;SDS011;11754;42.664;23.594;2023-04-20T11:51:45;9.02;;;5.18;;
23171;SDS011;11754;42.664;23.594;2023-04-20T11:54:11;11.77;;;5.97;;
23171;SDS011;11754;42.664;23.594;2023-04-20T11:56:37;7.70;;;6.50;;
23171;SDS011;11754;42.664;23.594;2023-04-20T11:59:03;11.30;;;4.90;;
23171;SDS011;11754;42.664;23.594;2023-04-20T12:01:29;11.05;;;4.65;;
23171;SDS011;11754;42.664;23.594;2023-04-20T12:03:55;6.47;;;4.30;;
23171;SDS011;11754;42.664;23.594;2023-04-20T12:06:20;7.82;;;4.80;;
23171;SDS011;11754;42.664;23.594;2023-04-20T12:08:46;10.82;;;6.78;;
23171;SDS011;11754;42.664;23.594;2023-04-20T12:11:12;11.80;;;9.02;;
23171;SDS011;11754;42.664;23.594;2023-04-20T12:13:40;13.48;;;7.43;;
23171;SDS011;11754;42.664;23.594;2023-04-20T12:16:07;11.18;;;6.70;;
23171;SDS011;11754;42.664;23.594;2023-04-20T12:18:32;6.68;;;5.18;;
23171;SDS011;11754;42.664;23.594;2023-04-20T12:20:58;6.25;;;5.53;;
23171;SDS011;11754;42.664;23.594;2023-04-20T12:23:24;8.60;;;5.47;;
23171;SDS011;11754;42.664;23.594;2023-04-20T12:25:50;9.40;;;6.00;;
23171;SDS011;11754;42.664;23.594;2023-04-20T12:28:16;7.85;;;5.32;;
23171;SDS011;11754;42.664;23.594;2023-04-20T12:30:41;7.35;;;5.90;;
23171;SDS011;11754;42.664;23.594;2023-04-20T12:33:07;8.10;;;5.47;;
23171;SDS011;11754;42.664;23.594;2023-04-20T12:35:32;5.72;;;4.53;;
23171;SDS011;11754;42.664;23.594;2023-04-20T12:37:57;6.00;;;3.88;;
23171;SDS011;11754;42.664;23.594;2023-04-20T12:40:23;4.45;;;3.30;;
23171;SDS011;11754;42.664;23.594;2023-04-20T12:42:49;5.10;;;3.85;;
23171;SDS011;11754;42.664;23.594;2023-04-20T12:45:14;10.25;;;3.90;;
23171;SDS011;11754;42.664;23.594;2023-04-20T12:47:39;8.60;;;3.28;;
23171;SDS011;11754;42.664;23.594;2023-04-20T12:50:05;5.75;;;2.70;;
23171;SDS011;11754;42.664;23.594;2023-04-20T12:52:31;8.75;;;2.63;;
23171;SDS011;11754;42.664;23.594;2023-04-20T12:54:57;3.40;;;1.50;;
23171;SDS011;11754;42.664;23.594;2023-04-20T12:57:23;2.13;;;1.70;;
23171;SDS011;11754;42.664;23.594;2023-04-20T12:59:48;5.43;;;2.33;;
23171;SDS011;11754;42.664;23.594;2023-04-20T13:02:14;4.30;;;2.55;;
23171;SDS011;11754;42.664;23.594;2023-04-20T13:04:39;3.10;;;2.30;;
23171;SDS011;11754;42.664;23.594;2023-04-20T13:07:05;4.00;;;2.13;;
23171;SDS011;11754;42.664;23.594;2023-04-20T13:09:31;3.70;;;1.70;;
23171;SDS011;11754;42.664;23.594;2023-04-20T13:11:56;2.05;;;1.60;;
23171;SDS011;11754;42.664;23.594;2023-04-20T13:14:23;3.78;;;2.60;;
23171;SDS011;11754;42.664;23.594;2023-04-20T13:16:49;4.50;;;3.03;;
23171;SDS011;11754;42.664;23.594;2023-04-20T13:19:14;7.50;;;3.88;;
23171;SDS011;11754;42.664;23.594;2023-04-20T13:21:39;6.25;;;4.07;;
23171;SDS011;11754;42.664;23.594;2023-04-20T13:24:05;7.20;;;4.40;;
23171;SDS011;11754;42.664;23.594;2023-04-20T13:26:31;7.50;;;5.18;;
23171;SDS011;11754;42.664;23.594;2023-04-20T13:28:56;7.65;;;6.43;;
23171;SDS011;11754;42.664;23.594;2023-04-20T13:31:22;8.00;;;5.72;;
23171;SDS011;11754;42.664;23.594;2023-04-20T13:33:48;5.63;;;5.03;;
23171;SDS011;11754;42.664;23.594;2023-04-20T13:36:19;5.07;;;3.00;;
23171;SDS011;11754;42.664;23.594;2023-04-20T13:38:45;3.80;;;2.85;;
23171;SDS011;11754;42.664;23.594;2023-04-20T13:41:12;4.75;;;3.30;;
23171;SDS011;11754;42.664;23.594;2023-04-20T13:43:39;7.28;;;3.40;;
23171;SDS011;11754;42.664;23.594;2023-04-20T13:46:04;5.40;;;3.58;;
23171;SDS011;11754;42.664;23.594;2023-04-20T13:48:30;5.53;;;4.10;;
23171;SDS011;11754;42.664;23.594;2023-04-20T13:50:55;9.95;;;4.60;;
23171;SDS011;11754;42.664;23.594;2023-04-20T13:53:21;4.78;;;3.35;;
23171;SDS011;11754;42.664;23.594;2023-04-20T13:55:46;3.92;;;3.10;;
23171;SDS011;11754;42.664;23.594;2023-04-20T13:58:12;7.28;;;3.88;;
23171;SDS011;11754;42.664;23.594;2023-04-20T14:00:38;4.82;;;3.13;;
23171;SDS011;11754;42.664;23.594;2023-04-20T14:03:03;3.80;;;2.63;;
23171;SDS011;11754;42.664;23.594;2023-04-20T14:05:30;4.95;;;2.50;;
23171;SDS011;11754;42.664;23.594;2023-04-20T14:07:55;7.10;;;4.03;;
23171;SDS011;11754;42.664;23.594;2023-04-20T14:10:25;5.43;;;3.60;;
23171;SDS011;11754;42.664;23.594;2023-04-20T14:12:51;5.07;;;3.88;;
23171;SDS011;11754;42.664;23.594;2023-04-20T14:15:16;6.95;;;4.20;;
23171;SDS011;11754;42.664;23.594;2023-04-20T14:17:42;4.80;;;3.75;;